Time;durP1;ratioP1;P1;durP2;ratioP2;P2;SDS_P1;SDS_P2;PMS_P1;PMS_P2;Temp;Humidity;BMP_temperature;BMP_pressure;BME280_temperature;BME280_humidity;BME280_pressure;Samples;Min_cycle;Max_cycle;Signal;HPM_P1;HPM_P2
2022/07/26 00:00:23;;;;;;;;;;;;;;;28.58;57.49;98408.16;2077480;28;20298;-49
2022/07/26 00:01:24;;;;;;;;;;;;;;;28.41;57.86;98411.13;2073644;28;19939;-49
2022/07/26 00:02:25;;;;;;;;;;;;;;;28.22;58.80;98410.88;2077090;28;19954;-51
2022/07/26 00:03:27;;;;;;;;;;;;;;;28.28;58.41;98408.97;2076278;28;19931;-51
2022/07/26 00:04:27;;;;;;;;;;;;;;;28.33;58.54;98408.13;2077178;28;19929;-54
2022/07/26 00:05:29;;;;;;;;;;;;;;;28.32;58.68;98410.06;2077390;28;21033;-52
2022/07/26 00:06:31;;;;;;;;;;;;;;;28.39;58.01;98396.97;2077232;28;19940;-50
2022/07/26 00:07:31;;;;;;;;;;;;;;;28.42;57.69;98401.91;2078369;28;20430;-50
2022/07/26 00:08:33;;;;;;;;;;;;;;;28.55;57.02;98396.97;2080216;28;19925;-52
2022/07/26 00:09:33;;;;;;;;;;;;;;;28.70;55.95;98391.50;2079753;28;19929;-53
2022/07/26 00:10:35;;;;;;;;;;;;;;;28.77;56.44;98396.66;2076808;28;19936;-52
2022/07/26 00:11:36;;;;;;;;;;;;;;;28.86;55.66;98395.00;2079491;28;19940;-48
2022/07/26 00:12:37;;;;;;;;;;;;;;;28.61;56.88;98393.97;2075388;28;20063;-51
2022/07/26 00:13:39;;;;;;;;;;;;;;;28.65;56.61;98389.59;2075558;28;20513;-53
2022/07/26 00:14:41;;;;;;;;;;;;;;;28.77;56.12;98397.47;2083039;28;19933;-47
2022/07/26 00:15:42;;;;;;;;;;;;;;;28.86;55.80;98384.91;2082243;28;19924;-53
2022/07/26 00:16:43;;;;;;;;;;;;;;;28.92;55.42;98394.72;2081283;28;19932;-54
2022/07/26 00:17:44;;;;;;;;;;;;;;;28.99;55.12;98397.16;2081478;28;19929;-51
2022/07/26 00:18:46;;;;;;;;;;;;;;;29.02;54.76;98393.84;2075610;28;19932;-54
2022/07/26 00:19:46;;;;;;;;;;;;;;;29.06;54.90;98384.06;2077072;28;19929;-51
2022/07/26 00:20:48;;;;;;;;;;;;;;;29.10;54.63;98385.13;2079935;28;19928;-54
2022/07/26 00:22:32;;;;;;;;;;;;;;;29.11;54.65;98373.13;2079173;28;19956;-54
2022/07/26 00:23:11;;;;;;;;;;;;;;;29.14;54.56;98372.56;2076238;28;20012;-53
2022/07/26 00:24:12;;;;;;;;;;;;;;;29.17;54.43;98369.25;2076080;28;19929;-53
2022/07/26 00:25:13;;;;;;;;;;;;;;;29.05;54.92;98387.88;2078082;28;19931;-52
2022/07/26 00:26:14;;;;;;;;;;;;;;;29.10;54.96;98385.13;2078316;28;19935;-53
2022/07/26 00:27:16;;;;;;;;;;;;;;;29.12;54.61;98377.47;2079790;28;19928;-51
2022/07/26 00:28:16;;;;;;;;;;;;;;;29.11;54.67;98381.31;2078174;28;19933;-52
2022/07/26 00:29:19;;;;;;;;;;;;;;;29.09;54.66;98369.84;2076384;28;19928;-51
2022/07/26 00:30:20;;;;;;;;;;;;;;;29.09;54.88;98369.03;2077178;28;19928;-51
2022/07/26 00:31:22;;;;;;;;;;;;;;;29.08;54.74;98375.56;2063515;28;20490;-50
2022/07/26 00:32:22;;;;;;;;;;;;;;;29.02;55.03;98361.09;2070213;28;19948;-51
2022/07/26 00:33:24;;;;;;;;;;;;;;;29.02;55.03;98350.16;2076376;28;19928;-54
2022/07/26 00:34:24;;;;;;;;;;;;;;;29.00;54.66;98357.00;2075391;28;19932;-51
2022/07/26 00:35:26;;;;;;;;;;;;;;;28.93;55.55;98352.66;2075250;28;20415;-52
2022/07/26 00:36:27;;;;;;;;;;;;;;;28.55;56.83;98354.13;2078825;28;19940;-53
2022/07/26 00:37:29;;;;;;;;;;;;;;;28.40;57.27;98354.13;2075963;28;19991;-54
2022/07/26 00:38:30;;;;;;;;;;;;;;;28.57;56.32;98357.41;2080450;28;19940;-51
2022/07/26 00:39:31;;;;;;;;;;;;;;;28.77;55.58;98353.81;2075584;28;19929;-53
2022/07/26 00:40:33;;;;;;;;;;;;;;;28.87;55.25;98350.25;2080689;28;19929;-50
2022/07/26 00:41:33;;;;;;;;;;;;;;;28.92;54.96;98340.13;2077614;28;19933;-51
2022/07/26 00:42:35;;;;;;;;;;;;;;;28.99;54.58;98350.72;2079160;28;20302;-52
2022/07/26 00:43:35;;;;;;;;;;;;;;;29.01;54.68;98347.72;2080188;28;20548;-48
2022/07/26 00:44:39;;;;;;;;;;;;;;;29.04;54.64;98350.75;2078545;28;19933;-53
2022/07/26 00:45:39;;;;;;;;;;;;;;;29.08;54.21;98353.72;2076903;28;20481;-49
2022/07/26 00:46:41;;;;;;;;;;;;;;;29.10;54.10;98346.88;2077077;28;19939;-53
2022/07/26 00:47:42;;;;;;;;;;;;;;;29.12;54.07;98350.16;2073927;28;20255;-54
2022/07/26 00:48:44;;;;;;;;;;;;;;;29.14;54.08;98352.59;2077859;28;20409;-52
2022/07/26 00:49:44;;;;;;;;;;;;;;;29.14;53.65;98353.44;2075286;28;19928;-50
2022/07/26 00:50:46;;;;;;;;;;;;;;;29.20;53.80;98345.19;2080099;28;19939;-53
2022/07/26 00:51:47;;;;;;;;;;;;;;;29.20;53.95;98342.47;2078316;28;20545;-53
2022/07/26 00:52:49;;;;;;;;;;;;;;;29.18;53.97;98343.59;2080753;28;19974;-53
2022/07/26 00:53:49;;;;;;;;;;;;;;;29.16;53.91;98340.31;2080171;28;20766;-51
2022/07/26 00:54:53;;;;;;;;;;;;;;;29.17;53.93;98346.59;2081990;28;19925;-53
2022/07/26 00:55:53;;;;;;;;;;;;;;;29.20;53.90;98339.75;2083201;28;19985;-52
2022/07/26 00:56:55;;;;;;;;;;;;;;;29.21;53.85;98344.13;2082292;28;20950;-53
2022/07/26 00:57:55;;;;;;;;;;;;;;;29.18;53.87;98340.03;2079046;28;20740;-53
2022/07/26 00:58:57;;;;;;;;;;;;;;;29.18;53.83;98343.59;2077821;28;20012;-53
2022/07/26 01:00:00;;;;;;;;;;;;;;;29.23;53.74;98350.13;2074675;28;20013;-52
2022/07/26 01:01:01;;;;;;;;;;;;;;;29.23;53.63;98344.66;2078981;28;19974;-53
2022/07/26 01:02:02;;;;;;;;;;;;;;;29.24;53.68;98341.63;2074316;28;19940;-51
2022/07/26 01:03:04;;;;;;;;;;;;;;;29.25;53.67;98345.19;2076486;28;19933;-51
2022/07/26 01:04:05;;;;;;;;;;;;;;;29.27;53.63;98345.72;2075308;28;19931;-53
2022/07/26 01:05:07;;;;;;;;;;;;;;;29.27;53.66;98343.00;2077088;28;20047;-50
2022/07/26 01:06:08;;;;;;;;;;;;;;;29.25;53.61;98342.44;2064725;28;19929;-54
2022/07/26 01:07:09;;;;;;;;;;;;;;;29.26;53.48;98338.63;2074689;28;19932;-53
2022/07/26 01:08:10;;;;;;;;;;;;;;;29.29;53.55;98338.06;2079957;28;20042;-53
2022/07/26 01:09:11;;;;;;;;;;;;;;;29.29;53.40;98332.63;2077069;28;20508;-50
2022/07/26 01:10:12;;;;;;;;;;;;;;;29.29;53.36;98332.63;2075862;28;19925;-52
2022/07/26 01:11:14;;;;;;;;;;;;;;;29.27;53.52;98335.59;2080385;28;19925;-50
2022/07/26 01:12:14;;;;;;;;;;;;;;;29.26;53.39;98333.19;2073089;28;21297;-53
2022/07/26 01:13:19;;;;;;;;;;;;;;;29.23;53.56;98331.00;2079907;28;19929;-54
2022/07/26 01:14:20;;;;;;;;;;;;;;;29.25;53.36;98328.78;2077988;28;19924;-51
2022/07/26 01:15:23;;;;;;;;;;;;;;;29.26;53.31;98322.25;2079669;28;20533;-49
2022/07/26 01:16:24;;;;;;;;;;;;;;;29.25;53.70;98324.13;2077421;28;19940;-53
2022/07/26 01:17:25;;;;;;;;;;;;;;;29.19;53.90;98325.28;2078317;28;19960;-51
2022/07/26 01:18:26;;;;;;;;;;;;;;;29.15;53.81;98314.09;2078015;28;19928;-51
2022/07/26 01:19:28;;;;;;;;;;;;;;;29.08;53.91;98316.31;2076277;28;19933;-50
2022/07/26 01:20:28;;;;;;;;;;;;;;;29.14;53.87;98317.09;2080559;28;19925;-52
2022/07/26 01:21:32;;;;;;;;;;;;;;;29.16;53.74;98314.91;2082962;28;19929;-49
2022/07/26 01:22:32;;;;;;;;;;;;;;;29.18;53.65;98308.06;2081130;28;19932;-51
2022/07/26 01:23:34;;;;;;;;;;;;;;;29.24;53.62;98305.31;2076809;28;20951;-54
2022/07/26 01:24:35;;;;;;;;;;;;;;;29.16;53.66;98304.81;2077198;28;19929;-55
2022/07/26 01:25:38;;;;;;;;;;;;;;;29.19;53.66;98308.88;2073502;28;20533;-52
2022/07/26 01:26:38;;;;;;;;;;;;;;;29.19;53.74;98311.63;2078160;28;19939;-54
2022/07/26 01:27:40;;;;;;;;;;;;;;;29.20;53.67;98310.53;2076319;28;19929;-53
2022/07/26 01:28:41;;;;;;;;;;;;;;;29.22;53.46;98312.97;2077110;28;19924;-49
2022/07/26 01:29:42;;;;;;;;;;;;;;;29.21;53.46;98309.44;2080068;28;20003;-52
2022/07/26 01:30:43;;;;;;;;;;;;;;;29.17;53.75;98314.66;2079425;28;19932;-50
2022/07/26 01:31:44;;;;;;;;;;;;;;;29.22;53.53;98312.97;2082627;28;19987;-52
2022/07/26 01:32:45;;;;;;;;;;;;;;;29.24;53.44;98313.50;2080434;28;20035;-51
2022/07/26 01:33:47;;;;;;;;;;;;;;;29.25;53.28;98313.22;2075395;28;20409;-53
2022/07/26 01:34:47;;;;;;;;;;;;;;;29.25;53.00;98315.94;2076825;28;19937;-51
2022/07/26 01:35:49;;;;;;;;;;;;;;;29.25;53.28;98315.13;2079565;28;19935;-52
2022/07/26 01:36:53;;;;;;;;;;;;;;;29.24;53.13;98310.78;2077511;28;20322;-52
2022/07/26 01:37:54;;;;;;;;;;;;;;;29.24;53.14;98299.84;2072864;28;19929;-50
2022/07/26 01:38:55;;;;;;;;;;;;;;;29.24;53.24;98305.31;2078666;28;19939;-51
2022/07/26 01:39:56;;;;;;;;;;;;;;;29.25;53.07;98310.47;2078934;28;19958;-52
2022/07/26 01:40:57;;;;;;;;;;;;;;;29.27;53.05;98307.47;2080531;28;19929;-51
2022/07/26 01:41:58;;;;;;;;;;;;;;;29.25;53.00;98320.59;2082383;28;20533;-49
2022/07/26 01:42:59;;;;;;;;;;;;;;;29.24;52.95;98302.59;2080832;28;19932;-51
2022/07/26 01:44:01;;;;;;;;;;;;;;;29.22;52.95;98310.25;2081485;28;20533;-49
2022/07/26 01:45:01;;;;;;;;;;;;;;;29.24;52.91;98313.50;2072449;28;19929;-51
2022/07/26 01:46:03;;;;;;;;;;;;;;;29.18;53.04;98305.34;2075592;28;19932;-52
2022/07/26 01:47:04;;;;;;;;;;;;;;;29.16;53.09;98304.81;2080038;28;19929;-53
2022/07/26 01:48:06;;;;;;;;;;;;;;;29.17;53.05;98309.19;2079794;28;20603;-50
2022/07/26 01:49:07;;;;;;;;;;;;;;;29.19;52.79;98306.16;2077229;28;19940;-54
2022/07/26 01:50:09;;;;;;;;;;;;;;;29.21;52.89;98300.44;2077227;28;19959;-53
2022/07/26 01:51:10;;;;;;;;;;;;;;;29.24;52.88;98308.06;2080497;28;19943;-50
2022/07/26 01:52:13;;;;;;;;;;;;;;;29.26;52.74;98303.94;2081277;28;19963;-50
2022/07/26 01:53:14;;;;;;;;;;;;;;;29.27;52.65;98302.03;2077820;28;19939;-52
2022/07/26 01:54:15;;;;;;;;;;;;;;;29.23;52.90;98301.78;2071315;28;20007;-52
2022/07/26 01:55:16;;;;;;;;;;;;;;;29.22;52.92;98299.31;2076200;28;19971;-52
2022/07/26 01:56:18;;;;;;;;;;;;;;;29.23;52.76;98303.69;2078047;28;20280;-52
2022/07/26 01:57:18;;;;;;;;;;;;;;;29.23;52.58;98304.50;2076181;28;19940;-50
2022/07/26 01:58:20;;;;;;;;;;;;;;;29.24;52.59;98302.59;2082047;28;19925;-51
2022/07/26 01:59:20;;;;;;;;;;;;;;;29.02;53.12;98298.28;2080241;28;19933;-52
2022/07/26 02:00:22;;;;;;;;;;;;;;;28.98;53.32;98307.34;2077947;28;20252;-50
2022/07/26 02:01:22;;;;;;;;;;;;;;;29.08;53.08;98302.66;2077097;28;19955;-55
2022/07/26 02:02:24;;;;;;;;;;;;;;;29.09;52.96;98306.22;2078026;28;19950;-53
2022/07/26 02:03:25;;;;;;;;;;;;;;;29.13;52.93;98308.09;2074948;28;19932;-51
2022/07/26 02:05:45;;;;;;;;;;;;;;;29.22;52.15;98304.78;2073127;28;20611;-51
2022/07/26 02:06:46;;;;;;;;;;;;;;;29.24;52.05;98302.59;2075979;28;20334;-51
2022/07/26 02:07:49;;;;;;;;;;;;;;;29.24;51.90;98297.94;2076670;28;19933;-50
2022/07/26 02:08:49;;;;;;;;;;;;;;;29.24;52.09;98294.41;2077927;28;19928;-50
2022/07/26 02:09:51;;;;;;;;;;;;;;;29.26;51.96;98294.94;2074109;28;20330;-53
2022/07/26 02:11:00;;;;;;;;;;;;;;;29.23;51.91;98295.50;2073463;28;19943;-53
2022/07/26 02:12:02;;;;;;;;;;;;;;;29.21;52.30;98292.22;2079804;28;19935;-53
2022/07/26 02:13:02;;;;;;;;;;;;;;;29.22;51.85;98296.59;2079104;28;19929;-50
2022/07/26 02:14:04;;;;;;;;;;;;;;;29.22;52.12;98293.84;2080142;28;19943;-52
2022/07/26 02:15:06;;;;;;;;;;;;;;;29.21;52.09;98290.31;2079053;28;20117;-52
2022/07/26 02:16:08;;;;;;;;;;;;;;;29.23;52.03;98290.03;2079210;28;19964;-54
2022/07/26 02:17:09;;;;;;;;;;;;;;;29.23;51.84;98290.03;2079736;28;19929;-53
2022/07/26 02:18:10;;;;;;;;;;;;;;;29.22;51.84;98300.13;2083025;28;19931;-51
2022/07/26 02:19:11;;;;;;;;;;;;;;;29.23;51.99;98292.78;2080915;28;19925;-52
2022/07/26 02:20:15;;;;;;;;;;;;;;;29.15;52.02;98295.00;2076363;28;20031;-53
2022/07/26 02:21:16;;;;;;;;;;;;;;;28.96;52.18;98299.41;2081500;28;19931;-51
2022/07/26 02:22:18;;;;;;;;;;;;;;;28.90;52.35;98297.81;2079663;28;20658;-52
2022/07/26 02:23:21;;;;;;;;;;;;;;;28.86;51.96;98297.56;2079802;28;20011;-53
2022/07/26 02:24:23;;;;;;;;;;;;;;;28.88;52.21;98300.81;2075545;28;19928;-51
2022/07/26 02:25:24;;;;;;;;;;;;;;;28.91;52.13;98304.91;2072385;28;19955;-52
2022/07/26 02:26:25;;;;;;;;;;;;;;;28.87;51.94;98309.28;2076979;28;19975;-53
2022/07/26 02:27:26;;;;;;;;;;;;;;;28.80;52.05;98304.13;2077342;28;20428;-52
2022/07/26 02:28:27;;;;;;;;;;;;;;;28.75;52.16;98315.03;2078048;28;19933;-52
2022/07/26 02:29:28;;;;;;;;;;;;;;;28.66;52.48;98303.06;2072876;28;19929;-54
2022/07/26 02:30:30;;;;;;;;;;;;;;;28.65;52.38;98307.72;2076156;28;20345;-53
2022/07/26 02:31:31;;;;;;;;;;;;;;;28.48;52.86;98309.97;2080453;28;19928;-53
2022/07/26 02:32:32;;;;;;;;;;;;;;;28.52;52.82;98313.75;2079972;28;20498;-51
2022/07/26 02:33:33;;;;;;;;;;;;;;;28.59;52.54;98306.09;2074815;28;19931;-54
2022/07/26 02:34:34;;;;;;;;;;;;;;;28.59;52.63;98314.31;2074513;28;20440;-53
2022/07/26 02:35:36;;;;;;;;;;;;;;;28.73;52.26;98307.16;2072816;28;19931;-52
2022/07/26 02:36:36;;;;;;;;;;;;;;;28.68;52.16;98301.72;2072944;28;19944;-51
2022/07/26 02:37:39;;;;;;;;;;;;;;;28.67;52.31;98293.81;2077032;28;20420;-53
2022/07/26 02:38:41;;;;;;;;;;;;;;;28.63;52.35;98307.19;2076548;28;19932;-53
2022/07/26 02:39:42;;;;;;;;;;;;;;;28.63;52.13;98304.44;2075911;28;20521;-53
2022/07/26 02:40:43;;;;;;;;;;;;;;;28.52;52.58;98308.31;2077966;28;19940;-52
2022/07/26 02:41:44;;;;;;;;;;;;;;;28.47;52.52;98303.69;2074483;28;20597;-49
2022/07/26 02:42:45;;;;;;;;;;;;;;;28.44;52.81;98303.41;2075214;28;19925;-53
2022/07/26 02:43:47;;;;;;;;;;;;;;;28.44;52.56;98306.13;2075003;28;19935;-53
2022/07/26 02:44:47;;;;;;;;;;;;;;;28.35;52.97;98300.41;2076870;28;20302;-52
2022/07/26 02:45:49;;;;;;;;;;;;;;;28.27;53.04;98293.59;2075830;28;19925;-53
2022/07/26 02:46:50;;;;;;;;;;;;;;;28.28;53.11;98289.78;2077455;28;20484;-54
2022/07/26 02:47:52;;;;;;;;;;;;;;;28.26;53.12;98288.44;2076735;28;22707;-52
2022/07/26 02:48:53;;;;;;;;;;;;;;;28.19;53.12;98290.59;2077783;28;19944;-48
2022/07/26 02:49:54;;;;;;;;;;;;;;;28.06;53.61;98292.00;2082688;28;19929;-49
2022/07/26 02:50:55;;;;;;;;;;;;;;;28.13;53.44;98294.44;2070276;28;20012;-52
2022/07/26 02:51:56;;;;;;;;;;;;;;;28.10;53.53;98286.81;2081495;28;19928;-51
2022/07/26 02:52:57;;;;;;;;;;;;;;;28.12;53.36;98292.81;2082435;28;20448;-54
2022/07/26 02:54:00;;;;;;;;;;;;;;;28.17;53.30;98285.44;2083110;28;19933;-51
2022/07/26 02:55:00;;;;;;;;;;;;;;;28.27;53.09;98285.41;2083268;28;19929;-50
2022/07/26 02:56:02;;;;;;;;;;;;;;;28.23;53.13;98280.81;2082796;28;19929;-54
2022/07/26 02:57:03;;;;;;;;;;;;;;;28.24;53.20;98280.50;2080258;28;20497;-54
2022/07/26 02:58:04;;;;;;;;;;;;;;;28.27;53.21;98282.69;2081173;28;19931;-52
2022/07/26 02:59:05;;;;;;;;;;;;;;;28.21;53.18;98277.53;2078259;28;21234;-49
2022/07/26 03:00:07;;;;;;;;;;;;;;;28.21;53.23;98274.78;2082902;28;19972;-51
2022/07/26 03:01:08;;;;;;;;;;;;;;;28.13;53.17;98278.88;2082388;28;20671;-47
2022/07/26 03:02:09;;;;;;;;;;;;;;;28.18;53.11;98280.81;2083473;28;19928;-53
2022/07/26 03:03:12;;;;;;;;;;;;;;;28.13;53.26;98272.63;2083944;28;19931;-47
2022/07/26 03:04:14;;;;;;;;;;;;;;;28.15;53.05;98270.44;2078828;28;19933;-53
2022/07/26 03:05:14;;;;;;;;;;;;;;;28.12;53.20;98277.28;2076354;28;19933;-53
2022/07/26 03:06:16;;;;;;;;;;;;;;;28.08;53.50;98265.25;2075099;28;22554;-51
2022/07/26 03:07:16;;;;;;;;;;;;;;;28.01;53.81;98272.91;2072399;28;19932;-51
2022/07/26 03:08:18;;;;;;;;;;;;;;;27.98;53.71;98268.84;2075168;28;19932;-52
2022/07/26 03:09:20;;;;;;;;;;;;;;;27.89;53.98;98270.47;2075514;28;19933;-53
2022/07/26 03:10:21;;;;;;;;;;;;;;;27.93;54.08;98270.75;2077428;28;20577;-51
2022/07/26 03:11:22;;;;;;;;;;;;;;;27.88;54.01;98270.75;2078625;28;19925;-53
2022/07/26 03:12:24;;;;;;;;;;;;;;;27.94;53.89;98275.09;2078191;28;20579;-50
2022/07/26 03:13:25;;;;;;;;;;;;;;;27.82;54.13;98268.00;2076594;28;19940;-54
2022/07/26 03:14:26;;;;;;;;;;;;;;;27.90;54.15;98265.84;2076701;28;19925;-53
2022/07/26 03:15:27;;;;;;;;;;;;;;;27.92;54.18;98272.66;2076139;28;19944;-51
2022/07/26 03:16:28;;;;;;;;;;;;;;;28.00;53.84;98274.00;2074225;28;20031;-53
2022/07/26 03:17:29;;;;;;;;;;;;;;;28.08;53.53;98273.44;2077162;28;19932;-48
2022/07/26 03:18:30;;;;;;;;;;;;;;;28.02;53.75;98266.38;2076381;28;20028;-55
2022/07/26 03:19:31;;;;;;;;;;;;;;;27.84;54.37;98268.56;2077210;28;19929;-47
2022/07/26 03:20:32;;;;;;;;;;;;;;;27.92;54.25;98271.84;2075099;28;19928;-46
2022/07/26 03:21:33;;;;;;;;;;;;;;;27.90;54.24;98263.13;2075535;28;19929;-49
2022/07/26 03:22:35;;;;;;;;;;;;;;;27.92;53.94;98271.84;2077163;28;19933;-48
2022/07/26 03:23:36;;;;;;;;;;;;;;;27.84;54.23;98270.47;2072657;28;20379;-48
2022/07/26 03:24:39;;;;;;;;;;;;;;;27.81;54.44;98265.59;2073041;28;19935;-46
2022/07/26 03:25:39;;;;;;;;;;;;;;;27.83;54.42;98268.81;2076251;28;19947;-49
2022/07/26 03:26:41;;;;;;;;;;;;;;;27.88;54.37;98268.00;2075788;28;19935;-49
2022/07/26 03:27:41;;;;;;;;;;;;;;;27.81;54.57;98262.84;2076798;28;20322;-48
2022/07/26 03:28:44;;;;;;;;;;;;;;;27.77;54.81;98267.16;2074607;28;19935;-49
2022/07/26 03:29:44;;;;;;;;;;;;;;;27.90;54.41;98263.13;2075503;28;20010;-50
2022/07/26 03:30:46;;;;;;;;;;;;;;;27.98;53.92;98270.75;2080422;28;19983;-47
2022/07/26 03:31:47;;;;;;;;;;;;;;;28.02;54.10;98266.38;2081171;28;19936;-47
2022/07/26 03:32:48;;;;;;;;;;;;;;;27.92;54.14;98266.41;2082878;28;19959;-48
2022/07/26 03:33:49;;;;;;;;;;;;;;;27.94;54.36;98262.28;2078481;28;19925;-47
2022/07/26 03:34:50;;;;;;;;;;;;;;;27.99;54.11;98264.19;2082544;28;20331;-48
2022/07/26 03:35:51;;;;;;;;;;;;;;;27.92;54.27;98266.41;2077469;28;20808;-48
2022/07/26 03:36:52;;;;;;;;;;;;;;;27.95;54.33;98263.13;2075763;28;20413;-52
2022/07/26 03:37:54;;;;;;;;;;;;;;;27.98;54.31;98268.03;2073486;28;20327;-49
2022/07/26 03:38:55;;;;;;;;;;;;;;;28.00;54.07;98271.25;2076132;28;19936;-51
2022/07/26 03:39:58;;;;;;;;;;;;;;;28.00;54.04;98268.53;2078217;28;19928;-48
2022/07/26 03:40:58;;;;;;;;;;;;;;;27.99;54.07;98264.19;2079616;28;20295;-48
2022/07/26 03:42:00;;;;;;;;;;;;;;;27.97;53.96;98260.91;2076446;28;19929;-51
2022/07/26 03:43:00;;;;;;;;;;;;;;;28.01;53.96;98265.56;2073874;28;19925;-46
2022/07/26 03:44:02;;;;;;;;;;;;;;;27.90;54.21;98258.47;2078134;28;20216;-47
2022/07/26 03:45:03;;;;;;;;;;;;;;;27.87;54.20;98261.75;2076303;28;19929;-48
2022/07/26 03:46:04;;;;;;;;;;;;;;;27.94;54.19;98264.19;2078368;28;20607;-48
2022/07/26 03:47:05;;;;;;;;;;;;;;;27.95;54.28;98261.22;2079881;28;19929;-48
2022/07/26 03:48:07;;;;;;;;;;;;;;;28.01;53.88;98264.75;2082577;28;19925;-50
2022/07/26 03:49:07;;;;;;;;;;;;;;;28.03;53.87;98270.75;2078903;28;20394;-49
2022/07/26 03:50:09;;;;;;;;;;;;;;;28.10;53.84;98263.09;2081755;28;19929;-48
2022/07/26 03:51:10;;;;;;;;;;;;;;;28.19;53.58;98272.34;2078089;28;19991;-48
2022/07/26 03:52:11;;;;;;;;;;;;;;;28.26;53.35;98267.41;2079504;28;20018;-48
2022/07/26 03:53:12;;;;;;;;;;;;;;;28.31;53.15;98272.06;2079633;28;20043;-47
2022/07/26 03:54:13;;;;;;;;;;;;;;;28.37;52.90;98278.31;2081714;28;20425;-48
2022/07/26 03:56:35;;;;;;;;;;;;;;;28.46;52.94;98271.22;2079281;28;20596;-49
2022/07/26 03:57:35;;;;;;;;;;;;;;;28.45;52.82;98269.59;2075712;28;19928;-48
2022/07/26 03:58:37;;;;;;;;;;;;;;;28.48;52.61;98269.03;2079411;28;19935;-48
2022/07/26 03:59:38;;;;;;;;;;;;;;;28.48;52.55;98269.03;2073871;28;19929;-51
2022/07/26 04:00:39;;;;;;;;;;;;;;;28.50;52.58;98266.84;2073779;28;19933;-46
2022/07/26 04:01:41;;;;;;;;;;;;;;;28.52;52.44;98270.09;2075210;28;20471;-50
2022/07/26 04:02:42;;;;;;;;;;;;;;;28.50;52.52;98270.41;2077756;28;20393;-50
2022/07/26 04:03:43;;;;;;;;;;;;;;;28.53;52.32;98271.75;2080789;28;19925;-53
2022/07/26 04:04:45;;;;;;;;;;;;;;;28.54;52.50;98267.13;2079324;28;20558;-48
2022/07/26 04:05:45;;;;;;;;;;;;;;;28.46;52.77;98265.75;2077749;28;19933;-50
2022/07/26 04:06:47;;;;;;;;;;;;;;;28.48;52.61;98266.31;2076061;28;20858;-50
2022/07/26 04:07:48;;;;;;;;;;;;;;;28.52;52.85;98270.09;2072085;28;21069;-49
2022/07/26 04:08:50;;;;;;;;;;;;;;;28.54;52.49;98267.94;2079148;28;19929;-47
2022/07/26 04:09:50;;;;;;;;;;;;;;;28.57;52.53;98270.09;2076210;28;19928;-48
2022/07/26 04:10:53;;;;;;;;;;;;;;;28.56;52.51;98265.75;2080879;28;19958;-47
2022/07/26 04:11:54;;;;;;;;;;;;;;;28.54;52.56;98273.38;2077805;28;20617;-47
2022/07/26 04:12:55;;;;;;;;;;;;;;;28.51;52.48;98271.22;2076195;28;19929;-47
2022/07/26 04:13:56;;;;;;;;;;;;;;;28.50;52.68;98283.19;2074070;28;20452;-48
2022/07/26 04:14:58;;;;;;;;;;;;;;;28.50;52.74;98272.28;2075261;28;19929;-47
2022/07/26 04:15:59;;;;;;;;;;;;;;;28.48;52.59;98274.50;2078599;28;19925;-51
2022/07/26 04:17:00;;;;;;;;;;;;;;;28.48;52.74;98279.94;2077316;28;19964;-46
2022/07/26 04:18:01;;;;;;;;;;;;;;;28.48;52.76;98269.03;2076375;28;19929;-50
2022/07/26 04:19:02;;;;;;;;;;;;;;;28.48;52.81;98269.03;2077268;28;20098;-49
2022/07/26 04:20:03;;;;;;;;;;;;;;;28.39;53.13;98273.38;2076463;28;20059;-46
2022/07/26 04:21:05;;;;;;;;;;;;;;;28.39;52.89;98279.69;2071564;28;23846;-48
2022/07/26 04:22:06;;;;;;;;;;;;;;;28.41;52.78;98273.94;2075550;28;20677;-46
2022/07/26 04:23:07;;;;;;;;;;;;;;;28.39;52.90;98276.09;2069270;28;19932;-47
2022/07/26 04:24:08;;;;;;;;;;;;;;;28.37;52.84;98275.59;2077929;28;19929;-47
2022/07/26 04:25:09;;;;;;;;;;;;;;;28.37;52.95;98283.78;2076509;28;19999;-50
2022/07/26 04:26:12;;;;;;;;;;;;;;;28.42;52.83;98278.31;2075468;28;19929;-46
2022/07/26 04:27:14;;;;;;;;;;;;;;;28.27;53.31;98285.41;2075744;28;19933;-48
2022/07/26 04:28:15;;;;;;;;;;;;;;;28.35;53.04;98283.22;2079998;28;19925;-48
2022/07/26 04:29:16;;;;;;;;;;;;;;;28.43;52.99;98282.69;2075759;28;19939;-49
2022/07/26 04:30:17;;;;;;;;;;;;;;;28.48;52.61;98286.22;2078379;28;19956;-46
2022/07/26 04:31:18;;;;;;;;;;;;;;;28.55;52.51;98275.00;2073686;28;20595;-49
2022/07/26 04:32:19;;;;;;;;;;;;;;;28.55;52.68;98276.91;2075722;28;19929;-49
2022/07/26 04:33:21;;;;;;;;;;;;;;;28.59;52.64;98276.09;2074442;28;19976;-50
2022/07/26 04:34:21;;;;;;;;;;;;;;;28.63;52.46;98277.16;2071967;28;19925;-50
2022/07/26 04:35:23;;;;;;;;;;;;;;;28.66;52.24;98276.59;2076010;28;19929;-47
2022/07/26 04:36:23;;;;;;;;;;;;;;;28.67;52.38;98282.91;2075309;28;19940;-46
2022/07/26 04:37:25;;;;;;;;;;;;;;;28.68;52.29;98285.34;2079083;28;20387;-47
2022/07/26 04:38:25;;;;;;;;;;;;;;;28.65;52.23;98288.63;2076544;28;19925;-48
2022/07/26 04:39:27;;;;;;;;;;;;;;;28.63;52.35;98296.25;2070454;28;19933;-47
2022/07/26 04:40:32;;;;;;;;;;;;;;;28.61;52.37;98287.56;2072658;28;20027;-48
2022/07/26 04:41:35;;;;;;;;;;;;;;;28.59;52.46;98289.75;2075370;28;20398;-51
2022/07/26 04:42:35;;;;;;;;;;;;;;;28.64;52.56;98294.34;2076972;28;19928;-50
2022/07/26 04:43:37;;;;;;;;;;;;;;;28.65;52.26;98293.28;2072617;28;19928;-47
2022/07/26 04:44:37;;;;;;;;;;;;;;;28.67;52.24;98294.63;2074364;28;19983;-57
2022/07/26 04:45:39;;;;;;;;;;;;;;;28.68;52.12;98296.25;2077989;28;20038;-50
2022/07/26 04:46:39;;;;;;;;;;;;;;;28.68;52.06;98295.44;2076637;28;19932;-50
2022/07/26 04:47:42;;;;;;;;;;;;;;;28.68;51.96;98304.44;2060122;28;19939;-48
2022/07/26 04:48:44;;;;;;;;;;;;;;;28.67;51.97;98288.34;2061217;28;19929;-48
2022/07/26 04:49:44;;;;;;;;;;;;;;;28.69;52.00;98295.16;2070367;28;19939;-47
2022/07/26 04:50:46;;;;;;;;;;;;;;;28.71;51.82;98294.88;2071997;28;19939;-48
2022/07/26 04:51:46;;;;;;;;;;;;;;;28.72;51.85;98294.63;2074193;28;19932;-48
2022/07/26 04:52:48;;;;;;;;;;;;;;;28.70;52.11;98296.78;2075939;28;19925;-48
2022/07/26 04:53:49;;;;;;;;;;;;;;;28.65;52.24;98302.28;2074835;28;20628;-48
2022/07/26 04:54:50;;;;;;;;;;;;;;;28.65;52.19;98299.53;2077638;28;19939;-49
2022/07/26 04:55:51;;;;;;;;;;;;;;;28.63;52.26;98293.53;2078853;28;19933;-48
2022/07/26 04:56:54;;;;;;;;;;;;;;;28.65;52.18;98296.00;2079358;28;20718;-48
2022/07/26 04:57:54;;;;;;;;;;;;;;;28.65;52.20;98294.09;2078579;28;19929;-48
2022/07/26 04:58:56;;;;;;;;;;;;;;;28.65;52.03;98302.28;2074909;28;19924;-48
2022/07/26 04:59:56;;;;;;;;;;;;;;;28.67;52.24;98310.19;2073628;28;19939;-49
2022/07/26 05:00:59;;;;;;;;;;;;;;;28.67;51.99;98297.34;2076978;28;19955;-48
2022/07/26 05:01:59;;;;;;;;;;;;;;;28.69;52.21;98313.44;2079160;28;19925;-49
2022/07/26 05:03:01;;;;;;;;;;;;;;;28.69;52.14;98303.31;2081071;28;19931;-50
2022/07/26 05:04:02;;;;;;;;;;;;;;;28.68;52.06;98307.16;2076938;28;20334;-46
2022/07/26 05:05:04;;;;;;;;;;;;;;;28.73;52.13;98309.88;2077517;28;19932;-50
2022/07/26 05:06:05;;;;;;;;;;;;;;;28.71;52.00;98308.53;2077321;28;21428;-47
2022/07/26 05:07:06;;;;;;;;;;;;;;;28.71;52.07;98303.88;2077294;28;19985;-48
2022/07/26 05:08:07;;;;;;;;;;;;;;;28.71;52.24;98301.16;2076090;28;19998;-48
2022/07/26 05:09:09;;;;;;;;;;;;;;;28.68;52.51;98315.34;2078802;28;19925;-46
2022/07/26 05:10:11;;;;;;;;;;;;;;;28.69;52.39;98303.31;2075606;28;19933;-48
2022/07/26 05:11:12;;;;;;;;;;;;;;;28.74;52.11;98305.22;2073541;28;19931;-48
2022/07/26 05:12:15;;;;;;;;;;;;;;;28.70;52.20;98299.53;2077319;28;20655;-49
2022/07/26 05:13:15;;;;;;;;;;;;;;;28.68;52.45;98298.97;2074999;28;19947;-48
2022/07/26 05:14:17;;;;;;;;;;;;;;;28.67;52.35;98305.53;2080348;28;19929;-47
2022/07/26 05:15:17;;;;;;;;;;;;;;;28.64;52.61;98300.66;2072495;28;19925;-50
2022/07/26 05:16:19;;;;;;;;;;;;;;;28.67;52.60;98300.09;2075295;28;19931;-49
2022/07/26 05:17:19;;;;;;;;;;;;;;;28.66;52.63;98303.06;2079973;28;19937;-48
2022/07/26 05:18:21;;;;;;;;;;;;;;;28.67;52.57;98299.28;2080141;28;19929;-47
2022/07/26 05:19:22;;;;;;;;;;;;;;;28.64;52.39;98308.84;2064347;28;20843;-50
2022/07/26 05:20:24;;;;;;;;;;;;;;;28.61;52.66;98303.94;2071209;28;19932;-46
2022/07/26 05:21:26;;;;;;;;;;;;;;;28.63;52.33;98299.00;2073861;28;19929;-49
2022/07/26 05:22:28;;;;;;;;;;;;;;;28.67;52.15;98297.34;2078736;28;19933;-50